Time;durP1;ratioP1;P1;durP2;ratioP2;P2;SDS_P1;SDS_P2;PMS_P1;PMS_P2;Temp;Humidity;BMP_temperature;BMP_pressure;BME280_temperature;BME280_humidity;BME280_pressure;Samples;Min_cycle;Max_cycle;Signal;HPM_P1;HPM_P2
2021/12/06 00:00:38;;;;;;;33.17;18.10;;;;;;;-0.55;81.31;99255.50;1708323;81;21138;-55
2021/12/06 00:03:07;;;;;;;30.73;17.53;;;;;;;-0.53;81.41;99246.23;1708057;83;21062;-56
2021/12/06 00:05:34;;;;;;;33.37;17.80;;;;;;;-0.51;81.50;99248.42;1708418;83;21034;-56
2021/12/06 00:08:00;;;;;;;35.20;19.03;;;;;;;-0.50;81.56;99248.82;1709826;83;20923;-55
2021/12/06 00:10:28;;;;;;;31.33;18.13;;;;;;;-0.48;81.66;99248.37;1707733;82;20951;-55
2021/12/06 00:12:55;;;;;;;27.23;16.47;;;;;;;-0.46;81.74;99245.27;1706788;83;22168;-54
2021/12/06 00:15:21;;;;;;;28.33;17.57;;;;;;;-0.45;81.78;99243.05;1707045;83;21738;-55
2021/12/06 00:17:49;;;;;;;32.63;19.47;;;;;;;-0.45;81.83;99243.93;1713305;83;20976;-54
2021/12/06 00:20:15;;;;;;;25.37;17.10;;;;;;;-0.42;81.90;99245.64;1708807;83;21949;-55
2021/12/06 00:22:42;;;;;;;30.17;18.13;;;;;;;-0.41;81.93;99251.36;1683456;83;20935;-55
2021/12/06 00:25:09;;;;;;;31.90;17.07;;;;;;;-0.40;81.97;99250.02;1706731;83;21082;-55
2021/12/06 00:27:38;;;;;;;29.00;15.13;;;;;;;-0.38;82.00;99246.05;1705906;83;20904;-55
2021/12/06 00:30:07;;;;;;;22.53;14.57;;;;;;;-0.37;82.00;99246.48;1705406;83;20920;-54
2021/12/06 00:32:34;;;;;;;18.63;12.67;;;;;;;-0.35;82.09;99245.14;1702569;83;21182;-54
2021/12/06 00:35:00;;;;;;;25.77;15.37;;;;;;;-0.35;82.12;99246.02;1706571;81;20935;-55
2021/12/06 00:37:34;;;;;;;23.20;14.27;;;;;;;-0.34;82.10;99246.89;1708292;83;20939;-55
2021/12/06 00:39:59;;;;;;;25.20;14.70;;;;;;;-0.36;82.13;99232.36;1703217;83;20932;-55
2021/12/06 00:42:28;;;;;;;18.77;11.50;;;;;;;-0.36;82.18;99237.66;1702801;83;21993;-55
2021/12/06 00:44:55;;;;;;;24.80;13.73;;;;;;;-0.34;82.31;99233.67;1706634;83;20932;-55
2021/12/06 00:47:21;;;;;;;22.60;13.03;;;;;;;-0.31;82.33;99234.94;1707408;83;20979;-54
2021/12/06 00:49:49;;;;;;;17.00;11.60;;;;;;;-0.32;82.38;99230.09;1703176;83;21121;-54
2021/12/06 00:52:15;;;;;;;19.53;12.33;;;;;;;-0.31;82.39;99236.25;1704985;83;20975;-54
2021/12/06 00:54:42;;;;;;;20.73;12.67;;;;;;;-0.31;82.44;99232.29;1706903;83;20991;-54
2021/12/06 00:57:11;;;;;;;19.63;12.53;;;;;;;-0.30;82.48;99228.75;1700467;83;21051;-55
2021/12/06 00:59:38;;;;;;;18.03;11.40;;;;;;;-0.30;82.56;99228.31;1698480;83;21545;-55
2021/12/06 01:02:06;;;;;;;20.27;12.10;;;;;;;-0.27;82.59;99225.64;1699831;83;21082;-54
2021/12/06 01:04:35;;;;;;;19.63;11.40;;;;;;;-0.26;82.62;99226.06;1702629;81;21387;-55
2021/12/06 01:07:04;;;;;;;19.97;12.63;;;;;;;-0.25;82.64;99220.30;1702959;81;21083;-54
2021/12/06 01:09:31;;;;;;;19.63;11.33;;;;;;;-0.23;82.68;99229.09;1711323;83;20892;-55
2021/12/06 01:11:57;;;;;;;19.10;11.40;;;;;;;-0.22;82.75;99229.08;1705902;83;21117;-53
2021/12/06 01:14:23;;;;;;;19.10;12.00;;;;;;;-0.20;82.77;99220.69;1704622;83;23107;-54
2021/12/06 01:16:50;;;;;;;20.73;13.77;;;;;;;-0.18;82.83;99223.31;1699098;83;21388;-55
2021/12/06 01:19:16;;;;;;;23.23;13.07;;;;;;;-0.18;82.84;99224.19;1698519;83;21548;-54
2021/12/06 01:21:53;;;;;;;21.77;13.77;;;;;;;-0.17;82.90;99214.01;1704324;83;22174;-54
2021/12/06 01:24:17;;;;;;;19.80;13.07;;;;;;;-0.14;82.98;99212.66;1703009;82;21037;-54
2021/12/06 01:32:15;;;;;;;18.10;11.47;;;;;;;-0.07;83.09;99205.05;1705262;83;21046;-53
2021/12/06 01:39:46;;;;;;;20.37;13.73;;;;;;;-0.01;83.18;99194.85;1659616;85;21536;-54
2021/12/06 01:42:12;;;;;;;21.37;14.30;;;;;;;-0.01;83.25;99186.47;1706426;83;22242;-54
2021/12/06 01:44:41;;;;;;;25.07;14.00;;;;;;;0.01;83.23;99185.09;1702337;83;21133;-54
2021/12/06 01:47:23;;;;;;;26.53;15.13;;;;;;;0.02;83.23;99184.65;1703234;83;21093;-55
2021/12/06 01:49:58;;;;;;;22.33;13.27;;;;;;;0.02;83.22;99180.68;1708373;82;21114;-54
2021/12/06 01:52:30;;;;;;;21.97;14.10;;;;;;;0.03;83.29;99183.75;1703008;83;21845;-53
2021/12/06 01:54:58;;;;;;;24.60;13.43;;;;;;;0.03;83.31;99186.41;1701791;82;21094;-55
2021/12/06 01:57:25;;;;;;;22.73;12.97;;;;;;;0.05;83.33;99184.61;1702303;83;21073;-53
2021/12/06 01:59:53;;;;;;;21.50;13.20;;;;;;;0.05;83.37;99189.91;1706697;83;21062;-54
2021/12/06 02:02:21;;;;;;;19.93;11.77;;;;;;;0.05;83.40;99182.84;1702236;83;22292;-53
2021/12/06 02:04:47;;;;;;;22.53;13.47;;;;;;;0.08;83.48;99191.20;1705803;83;21764;-54
2021/12/06 02:07:18;;;;;;;20.27;13.30;;;;;;;0.10;83.52;99182.76;1710780;83;20904;-54
2021/12/06 02:09:46;;;;;;;24.23;13.70;;;;;;;0.14;83.59;99187.13;1706915;83;21039;-55
2021/12/06 02:12:13;;;;;;;21.93;13.10;;;;;;;0.16;83.59;99183.56;1702341;83;21110;-54
2021/12/06 02:19:40;;;;;;;22.20;13.90;;;;;;;0.21;83.51;99182.16;1711159;83;20876;-55
2021/12/06 02:22:12;;;;;;;21.13;13.17;;;;;;;0.21;83.50;99187.00;1704164;83;21512;-54
2021/12/06 02:24:38;;;;;;;21.37;13.43;;;;;;;0.22;83.53;99179.94;1708658;83;21348;-54
2021/12/06 02:27:10;;;;;;;20.23;12.63;;;;;;;0.24;83.55;99179.47;1703671;82;21544;-55
2021/12/06 02:29:37;;;;;;;24.20;14.47;;;;;;;0.26;83.60;99181.62;1705161;82;21197;-55
2021/12/06 02:32:09;;;;;;;23.50;14.27;;;;;;;0.29;83.73;99169.67;1707549;82;20955;-54
2021/12/06 02:34:33;;;;;;;23.17;15.47;;;;;;;0.32;83.74;99174.92;1707519;82;21512;-54
2021/12/06 02:37:00;;;;;;;19.47;13.10;;;;;;;0.33;83.70;99178.00;1707585;82;21616;-55
2021/12/06 02:39:29;;;;;;;25.50;14.83;;;;;;;0.34;83.63;99179.75;1705770;82;21537;-54
2021/12/06 02:41:56;;;;;;;21.50;13.60;;;;;;;0.33;83.65;99176.67;1703328;82;21101;-54
2021/12/06 02:44:23;;;;;;;23.27;13.63;;;;;;;0.36;83.67;99179.25;1704706;82;21101;-55
2021/12/06 02:46:49;;;;;;;24.03;13.83;;;;;;;0.37;83.66;99177.91;1705827;82;21054;-55
2021/12/06 02:49:16;;;;;;;23.43;14.27;;;;;;;0.38;83.67;99178.34;1706392;82;21758;-55
2021/12/06 02:51:42;;;;;;;21.47;14.23;;;;;;;0.42;83.76;99179.63;1706750;81;21468;-54
2021/12/06 02:54:10;;;;;;;19.83;12.80;;;;;;;0.45;83.87;99175.12;1705060;82;22423;-54
2021/12/06 02:56:53;;;;;;;24.37;13.57;;;;;;;0.46;83.89;99178.20;1707767;82;21384;-54
2021/12/06 02:59:09;;;;;;;23.83;13.77;;;;;;;0.47;83.90;99170.69;1703219;82;22553;-54
2021/12/06 03:01:47;;;;;;;21.97;14.30;;;;;;;0.48;83.78;99173.77;1703343;81;21152;-54
2021/12/06 03:04:14;;;;;;;20.63;13.47;;;;;;;0.50;83.79;99175.07;1716145;82;21038;-54
2021/12/06 03:06:41;;;;;;;20.13;12.77;;;;;;;0.50;83.81;99179.92;1709894;82;21717;-54
2021/12/06 03:09:13;;;;;;;20.17;13.33;;;;;;;0.51;83.86;99184.28;1709833;82;21386;-54
2021/12/06 03:11:50;;;;;;;22.17;13.90;;;;;;;0.52;83.91;99179.42;1711112;82;20989;-54
2021/12/06 03:14:22;;;;;;;22.20;14.47;;;;;;;0.55;83.96;99184.67;1707240;82;20931;-53
2021/12/06 03:16:50;;;;;;;21.57;14.23;;;;;;;0.54;83.94;99178.95;1708505;82;21509;-54
2021/12/06 03:19:17;;;;;;;22.87;14.47;;;;;;;0.54;83.90;99181.59;1710251;82;21177;-53
2021/12/06 03:21:43;;;;;;;22.70;13.80;;;;;;;0.55;83.95;99183.34;1710775;82;21481;-54
2021/12/06 03:24:10;;;;;;;21.50;13.37;;;;;;;0.56;83.97;99186.42;1691361;82;21582;-54
2021/12/06 03:26:37;;;;;;;21.13;14.73;;;;;;;0.59;84.01;99183.73;1711895;82;21512;-54
2021/12/06 03:29:04;;;;;;;27.53;15.77;;;;;;;0.60;83.99;99185.45;1720406;81;21411;-54
2021/12/06 03:31:30;;;;;;;25.30;16.03;;;;;;;0.61;84.05;99192.95;1718129;82;21445;-54
2021/12/06 03:33:58;;;;;;;18.93;13.90;;;;;;;0.62;84.10;99196.91;1716296;82;20958;-54
2021/12/06 03:39:34;;;;;;;21.53;14.70;;;;;;;0.67;84.08;99200.37;1867296;75;26419;-54
2021/12/06 03:42:03;;;;;;;19.65;14.43;;;;;;;0.64;84.10;99200.41;1825833;76;21093;-54
2021/12/06 03:44:30;;;;;;;24.57;15.93;;;;;;;0.64;84.14;99199.09;1830722;76;21156;-55
2021/12/06 03:47:07;;;;;;;21.43;15.37;;;;;;;0.64;84.16;99200.41;1832553;76;20957;-53
2021/12/06 03:49:35;;;;;;;22.60;14.50;;;;;;;0.64;84.14;99195.11;1790438;78;22141;-54
2021/12/06 03:52:02;;;;;;;20.70;13.73;;;;;;;0.65;84.11;99198.64;1760110;80;21135;-54
2021/12/06 03:54:29;;;;;;;19.70;13.47;;;;;;;0.65;84.20;99198.19;1765334;78;20956;-54
2021/12/06 03:56:56;;;;;;;20.57;14.67;;;;;;;0.66;84.25;99197.73;1801979;78;21184;-53
2021/12/06 03:59:23;;;;;;;23.33;15.67;;;;;;;0.67;84.30;99188.89;1798879;78;21378;-52
2021/12/06 04:01:51;;;;;;;26.10;15.87;;;;;;;0.69;84.36;99186.63;1792359;78;21627;-54
2021/12/06 04:04:19;;;;;;;24.20;15.73;;;;;;;0.72;84.34;99180.41;1765251;80;20931;-54
2021/12/06 04:06:46;;;;;;;22.37;15.50;;;;;;;0.71;84.29;99186.59;1776270;78;21230;-53
2021/12/06 04:09:12;;;;;;;24.50;15.27;;;;;;;0.73;84.25;99187.00;1786247;78;21731;-54
2021/12/06 04:11:40;;;;;;;22.43;14.13;;;;;;;0.74;84.25;99187.44;1765185;79;21840;-52
2021/12/06 04:14:06;;;;;;;19.73;12.87;;;;;;;0.78;84.30;99184.27;1767183;79;21314;-53
2021/12/06 04:16:33;;;;;;;24.93;16.57;;;;;;;0.81;84.31;99176.72;1762896;79;21076;-53
2021/12/06 04:18:59;;;;;;;26.50;17.03;;;;;;;0.83;84.34;99176.25;1776545;79;20992;-53
2021/12/06 04:21:26;;;;;;;27.43;18.50;;;;;;;0.85;84.30;99182.40;1771105;79;22385;-54
2021/12/06 04:23:53;;;;;;;27.87;17.97;;;;;;;0.83;84.28;99186.39;1770242;78;21468;-53
2021/12/06 04:26:20;;;;;;;21.67;15.23;;;;;;;0.83;84.28;99190.82;1769764;78;21250;-54
2021/12/06 04:28:57;;;;;;;26.80;16.37;;;;;;;0.84;84.25;99183.30;1779773;78;20913;-53
2021/12/06 04:31:18;;;;;;;26.67;16.57;;;;;;;0.84;84.20;99188.59;1736935;79;21792;-53
2021/12/06 04:33:45;;;;;;;23.67;15.30;;;;;;;0.83;84.23;99182.88;1781545;79;21417;-52
2021/12/06 04:36:11;;;;;;;28.67;16.70;;;;;;;0.85;84.28;99189.02;1803970;77;20898;-53
2021/12/06 04:38:37;;;;;;;26.13;16.47;;;;;;;0.85;84.31;99183.23;1779768;79;21082;-54
2021/12/06 04:41:04;;;;;;;27.93;17.23;;;;;;;0.87;84.34;99182.77;1772812;78;20948;-53
2021/12/06 04:43:32;;;;;;;28.20;18.17;;;;;;;0.90;84.33;99181.84;1802350;77;20988;-53
2021/12/06 04:45:58;;;;;;;27.73;18.03;;;;;;;0.89;84.33;99186.27;1805470;77;21077;-53
2021/12/06 04:48:25;;;;;;;21.77;13.13;;;;;;;0.89;84.28;99189.38;1810345;78;21081;-54
2021/12/06 04:50:51;;;;;;;21.40;14.23;;;;;;;0.87;84.19;99189.39;1779413;78;21417;-53
2021/12/06 04:53:23;;;;;;;21.67;14.70;;;;;;;0.88;84.19;99194.24;1773535;79;22222;-54
2021/12/06 04:56:02;;;;;;;23.60;14.13;;;;;;;0.89;84.27;99184.95;1768229;79;20958;-54
2021/12/06 04:58:33;;;;;;;18.43;12.47;;;;;;;0.90;84.25;99194.65;1749985;79;22189;-53
2021/12/06 05:01:08;;;;;;;18.17;12.47;;;;;;;0.93;84.34;99203.00;1794476;77;20892;-54
2021/12/06 05:03:35;;;;;;;21.00;12.95;;;;;;;0.93;84.31;99201.23;1808653;77;21003;-53
2021/12/06 05:06:06;;;;;;;16.90;11.97;;;;;;;0.91;84.25;99195.08;1761164;79;20993;-54
2021/12/06 05:08:37;;;;;;;16.23;11.10;;;;;;;0.91;84.23;99206.13;1778326;78;21448;-54
2021/12/06 05:11:04;;;;;;;17.53;11.67;;;;;;;0.89;84.18;99204.82;1776871;78;21068;-54
2021/12/06 05:13:31;;;;;;;16.17;11.03;;;;;;;0.91;84.21;99203.48;1782047;78;21080;-54
2021/12/06 05:15:59;;;;;;;18.20;11.47;;;;;;;0.91;84.26;99195.52;1805337;77;20926;-54
2021/12/06 05:18:25;;;;;;;15.93;11.20;;;;;;;0.91;84.35;99193.75;1785174;78;20965;-54
2021/12/06 05:20:52;;;;;;;18.43;12.77;;;;;;;0.92;84.37;99195.95;1780704;78;21045;-54
2021/12/06 05:23:19;;;;;;;18.00;11.27;;;;;;;0.93;84.26;99206.98;1751333;79;21106;-54
2021/12/06 05:25:48;;;;;;;15.33;10.83;;;;;;;0.91;84.22;99207.45;1770285;79;20930;-54
2021/12/06 05:28:17;;;;;;;17.23;11.27;;;;;;;0.89;84.23;99196.00;1782938;78;20984;-54
2021/12/06 05:30:44;;;;;;;19.23;11.57;;;;;;;0.88;84.23;99212.80;1787441;78;21158;-54
2021/12/06 05:33:17;;;;;;;18.93;12.10;;;;;;;0.87;84.19;99205.74;1773102;78;21099;-54
2021/12/06 05:35:39;;;;;;;20.80;12.83;;;;;;;0.87;84.17;99213.23;1779877;78;21376;-54
2021/12/06 05:38:05;;;;;;;20.53;13.00;;;;;;;0.88;84.19;99207.49;1782034;78;21021;-54
2021/12/06 05:40:33;;;;;;;21.57;13.67;;;;;;;0.90;84.20;99207.02;1776972;78;21072;-54
2021/12/06 05:43:02;;;;;;;18.53;12.27;;;;;;;0.89;84.25;99210.13;1781004;78;21401;-54
2021/12/06 05:45:30;;;;;;;20.27;12.47;;;;;;;0.87;84.22;99211.92;1785166;78;21057;-54
2021/12/06 05:47:56;;;;;;;20.20;14.33;;;;;;;0.85;84.24;99214.20;1803894;77;21708;-54
2021/12/06 05:50:23;;;;;;;21.53;14.60;;;;;;;0.84;84.27;99215.97;1805609;77;20961;-54
2021/12/06 05:52:53;;;;;;;18.33;12.87;;;;;;;0.85;84.29;99211.06;1801506;77;21065;-54
2021/12/06 05:55:19;;;;;;;22.50;12.87;;;;;;;0.87;84.29;99213.23;1799456;77;20894;-54
2021/12/06 05:57:46;;;;;;;18.53;12.17;;;;;;;0.86;84.27;99207.52;1770046;79;21129;-54
2021/12/06 06:00:16;;;;;;;18.33;13.17;;;;;;;0.89;84.33;99215.87;1780844;78;21096;-54
2021/12/06 06:02:42;;;;;;;20.50;13.17;;;;;;;0.89;84.34;99214.55;1790277;79;20883;-54
2021/12/06 06:05:09;;;;;;;21.73;12.57;;;;;;;0.89;84.34;99215.87;1810281;78;20965;-54
2021/12/06 06:07:36;;;;;;;24.43;14.83;;;;;;;0.89;84.37;99218.52;1785885;78;20938;-54
2021/12/06 06:10:04;;;;;;;18.27;12.27;;;;;;;0.87;84.34;99217.66;1778931;78;22244;-54
2021/12/06 06:12:31;;;;;;;18.33;12.50;;;;;;;0.87;84.27;99222.52;1769580;78;21424;-54
2021/12/06 06:14:57;;;;;;;19.47;12.57;;;;;;;0.87;84.31;99225.16;1793789;78;21362;-54
2021/12/06 06:17:23;;;;;;;18.53;11.90;;;;;;;0.89;84.31;99219.84;1804961;77;20851;-54
2021/12/06 06:19:54;;;;;;;20.87;13.47;;;;;;;0.90;84.30;99216.30;1783539;78;20899;-54
2021/12/06 06:22:20;;;;;;;18.43;11.40;;;;;;;0.91;84.36;99222.02;1815840;77;20906;-54
2021/12/06 06:24:46;;;;;;;20.30;14.10;;;;;;;0.91;84.36;99227.32;1781304;79;21140;-54
2021/12/06 06:27:13;;;;;;;23.23;13.90;;;;;;;0.90;84.35;99226.45;1770870;78;20902;-54
2021/12/06 06:29:39;;;;;;;23.00;13.67;;;;;;;0.90;84.31;99225.57;1772192;78;21040;-54
2021/12/06 06:32:06;;;;;;;21.73;14.40;;;;;;;0.90;84.31;99229.55;1783893;78;20902;-54
2021/12/06 06:34:33;;;;;;;20.70;13.07;;;;;;;0.89;84.25;99231.32;1774648;78;20907;-54
2021/12/06 06:37:00;;;;;;;21.50;13.10;;;;;;;0.90;84.32;99228.22;1782147;79;21809;-54
2021/12/06 06:39:26;;;;;;;23.77;12.23;;;;;;;0.91;84.36;99221.58;1786156;78;20891;-54
2021/12/06 06:41:52;;;;;;;22.27;13.57;;;;;;;0.93;84.48;99228.17;1785458;79;21535;-54
2021/12/06 06:44:20;;;;;;;21.50;13.53;;;;;;;0.97;84.46;99236.48;1784535;78;20902;-54
2021/12/06 06:46:47;;;;;;;21.53;13.33;;;;;;;0.98;84.38;99230.28;1794062;78;20906;-54
2021/12/06 06:49:14;;;;;;;25.70;14.87;;;;;;;0.96;84.37;99236.93;1790708;79;22494;-54
2021/12/06 06:51:40;;;;;;;24.40;15.53;;;;;;;0.97;84.44;99236.03;1797376;77;20952;-54
2021/12/06 06:54:08;;;;;;;26.33;14.23;;;;;;;0.99;84.38;99238.66;1770079;78;20946;-54
2021/12/06 06:56:34;;;;;;;25.63;13.53;;;;;;;0.98;84.33;99238.23;1779869;78;21551;-54
2021/12/06 06:59:00;;;;;;;22.43;12.67;;;;;;;0.99;84.34;99241.31;1763263;78;21745;-53
2021/12/06 07:01:27;;;;;;;20.33;12.00;;;;;;;1.00;84.34;99242.61;1767598;78;21056;-54
2021/12/06 07:03:54;;;;;;;23.93;13.83;;;;;;;1.03;84.37;99244.31;1757706;79;21015;-54
2021/12/06 07:06:25;;;;;;;22.50;14.63;;;;;;;1.05;84.37;99239.86;1779136;78;21515;-54
2021/12/06 07:08:53;;;;;;;22.53;13.43;;;;;;;1.09;84.46;99238.92;1778868;79;21022;-53
2021/12/06 07:11:22;;;;;;;24.83;14.27;;;;;;;1.11;84.44;99241.95;1789713;79;20917;-53
2021/12/06 07:13:49;;;;;;;27.60;15.50;;;;;;;1.14;84.50;99243.23;1781496;79;22200;-54
2021/12/06 07:16:16;;;;;;;25.20;14.97;;;;;;;1.13;84.39;99230.00;1781229;78;21532;-53
2021/12/06 07:18:42;;;;;;;24.60;13.87;;;;;;;1.13;84.38;99235.30;1783246;79;20973;-54
2021/12/06 07:21:09;;;;;;;23.10;13.43;;;;;;;1.13;84.38;99226.89;1782379;78;21544;-53
2021/12/06 07:23:38;;;;;;;24.73;13.97;;;;;;;1.16;84.37;99229.07;1780890;78;21025;-53
2021/12/06 07:26:08;;;;;;;22.30;13.57;;;;;;;1.17;84.35;99232.15;1785005;79;21712;-53
2021/12/06 07:28:34;;;;;;;24.33;15.40;;;;;;;1.18;84.46;99237.43;1781290;78;21549;-53
2021/12/06 07:31:05;;;;;;;23.40;12.83;;;;;;;1.19;84.46;99239.18;1767618;78;21104;-53
2021/12/06 07:33:30;;;;;;;23.80;14.90;;;;;;;1.23;84.54;99241.30;1781215;79;20977;-53
2021/12/06 07:35:56;;;;;;;22.10;13.37;;;;;;;1.24;84.55;99229.34;1780650;78;21920;-53
2021/12/06 07:38:22;;;;;;;25.47;14.77;;;;;;;1.27;84.57;99235.05;1774938;79;21740;-53
2021/12/06 07:42:28;;;;;;;26.20;15.87;;;;;;;1.32;84.49;99243.33;1775914;78;26559;-53
2021/12/06 07:44:55;;;;;;;22.80;13.17;;;;;;;1.31;84.44;99258.81;1738820;80;20969;-53
2021/12/06 07:47:22;;;;;;;20.23;12.43;;;;;;;1.32;84.45;99259.69;1739715;80;21129;-53
2021/12/06 07:49:48;;;;;;;26.57;13.80;;;;;;;1.35;84.45;99260.52;1737484;80;21076;-53
2021/12/06 07:52:15;;;;;;;23.53;14.07;;;;;;;1.37;84.48;99263.12;1736261;80;21064;-53
2021/12/06 07:54:42;;;;;;;22.17;14.47;;;;;;;1.37;84.47;99255.16;1736504;80;21009;-53
2021/12/06 07:57:09;;;;;;;25.63;15.73;;;;;;;1.37;84.48;99257.81;1738770;80;20938;-53
2021/12/06 07:59:37;;;;;;;25.43;15.13;;;;;;;1.36;84.49;99260.91;1750726;80;21006;-53
2021/12/06 08:02:04;;;;;;;30.80;15.57;;;;;;;1.37;84.44;99258.69;1741605;80;21005;-52
2021/12/06 08:04:31;;;;;;;28.27;17.43;;;;;;;1.35;84.44;99272.45;1741638;80;21533;-52
2021/12/06 08:06:57;;;;;;;28.97;16.53;;;;;;;1.36;84.43;99270.68;1736983;80;20962;-52
2021/12/06 08:09:24;;;;;;;28.47;15.90;;;;;;;1.35;84.47;99272.45;1745483;80;21530;-53
2021/12/06 08:11:50;;;;;;;28.50;15.67;;;;;;;1.37;84.48;99278.58;1742809;80;21138;-53
2021/12/06 08:14:17;;;;;;;28.90;15.80;;;;;;;1.39;84.50;99277.23;1737743;80;21033;-52
2021/12/06 08:16:44;;;;;;;32.00;18.20;;;;;;;1.38;84.52;99265.75;1740422;80;21509;-53
2021/12/06 08:19:11;;;;;;;34.77;18.67;;;;;;;1.39;84.60;99267.50;1735352;80;21426;-53
2021/12/06 08:21:37;;;;;;;36.23;19.17;;;;;;;1.38;84.59;99268.40;1739088;80;21348;-53
2021/12/06 08:24:05;;;;;;;37.77;19.67;;;;;;;1.37;84.62;99266.64;1741485;80;21165;-53
2021/12/06 08:26:36;;;;;;;34.60;17.57;;;;;;;1.37;84.63;99267.97;1744183;80;20895;-53
2021/12/06 08:29:06;;;;;;;27.63;16.10;;;;;;;1.37;84.64;99260.02;1705489;82;20934;-53
2021/12/06 08:31:34;;;;;;;33.40;17.80;;;;;;;1.41;84.67;99259.52;1668037;84;21389;-53
2021/12/06 08:34:01;;;;;;;34.20;18.63;;;;;;;1.43;84.71;99251.97;1674000;84;21070;-53
2021/12/06 08:36:27;;;;;;;29.87;17.73;;;;;;;1.46;84.72;99250.56;1672562;84;21145;-53
2021/12/06 08:38:53;;;;;;;33.17;19.80;;;;;;;1.49;84.72;99249.19;1670014;84;21085;-53
2021/12/06 08:41:23;;;;;;;38.03;19.60;;;;;;;1.51;84.71;99247.38;1666947;84;21062;-53
2021/12/06 08:43:50;;;;;;;36.33;20.23;;;;;;;1.54;84.79;99241.12;1669852;84;21505;-54
2021/12/06 08:46:25;;;;;;;49.73;22.87;;;;;;;1.58;84.75;99239.30;1674256;84;20923;-54
2021/12/06 08:48:52;;;;;;;40.30;21.37;;;;;;;1.57;84.67;99233.11;1714034;81;21172;-54
2021/12/06 08:51:23;;;;;;;38.70;20.83;;;;;;;1.56;84.61;99231.36;1714453;81;21089;-54
2021/12/06 08:53:51;;;;;;;41.20;20.23;;;;;;;1.56;84.60;99227.83;1712922;81;21559;-54
2021/12/06 08:56:18;;;;;;;36.90;19.73;;;;;;;1.56;84.62;99219.88;1716739;81;20887;-54
2021/12/06 08:58:44;;;;;;;33.97;20.07;;;;;;;1.58;84.69;99223.37;1717086;81;20887;-54
2021/12/06 09:01:11;;;;;;;29.10;16.33;;;;;;;1.62;84.72;99217.09;1715535;81;21419;-53
2021/12/06 09:03:39;;;;;;;33.47;20.00;;;;;;;1.65;84.64;99209.95;1713149;81;20993;-54
2021/12/06 09:06:08;;;;;;;34.17;19.37;;;;;;;1.66;84.58;99205.06;1719715;81;21084;-54
2021/12/06 09:08:34;;;;;;;36.07;21.87;;;;;;;1.67;84.60;99203.29;1714611;81;20982;-54
2021/12/06 09:11:01;;;;;;;34.23;19.33;;;;;;;1.68;84.67;99197.96;1715630;81;21096;-54
2021/12/06 09:13:28;;;;;;;41.17;22.43;;;;;;;1.70;84.64;99200.10;1714370;81;21891;-54
2021/12/06 09:15:56;;;;;;;42.80;22.00;;;;;;;1.70;84.60;99196.61;1715126;81;20962;-54
2021/12/06 09:18:23;;;;;;;40.30;21.57;;;;;;;1.69;84.58;99198.38;1718139;81;20891;-54
2021/12/06 09:20:50;;;;;;;37.20;21.67;;;;;;;1.72;84.60;99189.01;1713611;81;20955;-54
2021/12/06 09:23:16;;;;;;;39.10;20.10;;;;;;;1.71;84.54;99188.59;1716210;81;20923;-54
2021/12/06 09:25:44;;;;;;;36.10;21.37;;;;;;;1.70;84.55;99186.83;1715895;81;21058;-54
2021/12/06 09:28:11;;;;;;;36.87;19.63;;;;;;;1.70;84.52;99181.53;1715017;81;20943;-54
2021/12/06 09:30:37;;;;;;;38.50;19.87;;;;;;;1.73;84.61;99179.27;1713602;81;20907;-54
2021/12/06 09:33:06;;;;;;;32.07;18.67;;;;;;;1.76;84.66;99172.13;1718085;81;20887;-54
2021/12/06 09:35:35;;;;;;;33.60;19.00;;;;;;;1.78;84.61;99171.66;1714865;81;20920;-54
2021/12/06 09:38:02;;;;;;;30.10;17.90;;;;;;;1.78;84.56;99171.66;1714829;81;21106;-54
2021/12/06 09:40:30;;;;;;;28.30;16.97;;;;;;;1.79;84.55;99176.02;1715462;81;20962;-54
2021/12/06 09:42:59;;;;;;;34.60;18.77;;;;;;;1.77;84.50;99169.02;1724648;81;20954;-54
2021/12/06 09:45:28;;;;;;;31.40;18.13;;;;;;;1.74;84.40;99172.61;1719404;81;20946;-54
2021/12/06 09:47:54;;;;;;;32.23;17.77;;;;;;;1.72;84.34;99174.87;1719303;81;20922;-54
2021/12/06 09:50:28;;;;;;;28.30;16.17;;;;;;;1.71;84.36;99168.69;1722195;81;21814;-53
2021/12/06 09:52:57;;;;;;;28.17;16.00;;;;;;;1.70;84.44;99165.61;1720955;81;20923;-54
2021/12/06 09:55:24;;;;;;;33.33;17.97;;;;;;;1.72;84.50;99167.78;1720752;81;20906;-53
2021/12/06 09:57:50;;;;;;;28.20;17.27;;;;;;;1.73;84.55;99155.39;1719524;81;20908;-53
2021/12/06 10:00:19;;;;;;;34.30;17.77;;;;;;;1.73;84.58;99154.94;1717645;81;21053;-53
2021/12/06 10:02:45;;;;;;;33.70;17.07;;;;;;;1.72;84.51;99148.34;1717953;81;21131;-53
2021/12/06 10:05:11;;;;;;;36.23;17.67;;;;;;;1.71;84.46;99148.78;1722798;81;21230;-53
2021/12/06 10:07:38;;;;;;;30.77;17.63;;;;;;;1.68;84.43;99143.57;1716127;81;21084;-54
2021/12/06 10:10:09;;;;;;;27.50;15.63;;;;;;;1.68;84.44;99138.72;1715078;81;21058;-53
2021/12/06 10:12:36;;;;;;;26.83;15.23;;;;;;;1.68;84.42;99146.22;1717386;81;21155;-54
2021/12/06 10:15:05;;;;;;;27.50;15.00;;;;;;;1.67;84.46;99139.62;1716941;81;21123;-54
2021/12/06 10:17:32;;;;;;;26.20;15.13;;;;;;;1.69;84.54;99144.45;1715238;81;21053;-53
2021/12/06 10:19:58;;;;;;;24.97;15.03;;;;;;;1.69;84.55;99136.48;1716821;81;21414;-54
2021/12/06 10:22:27;;;;;;;28.20;16.03;;;;;;;1.73;84.61;99136.82;1715154;81;21108;-53
2021/12/06 10:24:57;;;;;;;25.23;15.13;;;;;;;1.76;84.66;99133.66;1719199;81;21709;-53
2021/12/06 10:27:24;;;;;;;27.17;15.20;;;;;;;1.79;84.67;99128.26;1715690;81;21135;-54
2021/12/06 10:29:54;;;;;;;25.67;13.67;;;;;;;1.80;84.62;99129.13;1716786;81;21092;-54
2021/12/06 10:32:30;;;;;;;27.07;16.40;;;;;;;1.80;84.63;99129.13;1721833;81;21116;-54
2021/12/06 10:35:12;;;;;;;22.97;14.53;;;;;;;1.77;84.65;99127.90;1716643;81;20969;-54
2021/12/06 10:37:47;;;;;;;19.97;13.30;;;;;;;1.76;84.56;99122.17;1649929;85;21070;-54
2021/12/06 10:40:18;;;;;;;;;;;;;;;1.71;84.52;99120.93;1685882;83;21045;-55
2021/12/06 10:42:46;;;;;;;20.00;11.77;;;;;;;1.69;84.66;99120.56;1658916;84;20332;-55
2021/12/06 10:45:23;;;;;;;17.43;10.70;;;;;;;1.69;84.77;99117.91;1696422;82;21355;-55
2021/12/06 10:48:25;;;;;;;20.13;12.27;;;;;;;1.70;84.83;99123.64;1696994;82;21507;-54
2021/12/06 10:51:00;;;;;;;19.57;11.47;;;;;;;1.73;84.85;99132.84;1698753;82;21424;-55
2021/12/06 10:53:36;;;;;;;22.75;11.78;;;;;;;1.75;84.92;99137.66;1701069;82;21453;-53
2021/12/06 10:56:01;;;;;;;24.17;14.47;;;;;;;1.75;84.93;99135.02;1677013;84;21493;-54
2021/12/06 10:58:31;;;;;;;20.10;12.97;;;;;;;1.73;84.87;99139.47;1667813;84;22969;-55
2021/12/06 11:01:17;;;;;;;18.63;12.47;;;;;;;1.71;84.87;99132.87;1660914;84;21006;-55
2021/12/06 11:03:53;;;;;;;18.83;11.67;;;;;;;1.70;84.87;99138.23;1668189;84;20899;-56
2021/12/06 11:06:41;;;;;;;16.93;10.70;;;;;;;1.70;84.92;99128.95;1699937;82;21177;-55
2021/12/06 11:09:06;;;;;;;20.73;12.03;;;;;;;1.72;84.98;99127.11;1698047;82;21049;-55
2021/12/06 11:11:39;;;;;;;18.83;12.10;;;;;;;1.74;85.01;99127.95;1697952;82;21634;-55
2021/12/06 11:14:12;;;;;;;20.97;12.57;;;;;;;1.75;84.99;99131.03;1680565;82;20918;-55
2021/12/06 11:16:47;;;;;;;17.10;10.97;;;;;;;1.76;85.02;99124.83;1701134;82;21073;-54
2021/12/06 11:19:18;;;;;;;19.77;10.98;;;;;;;1.76;85.03;99119.52;1698520;82;21770;-54
2021/12/06 11:21:59;;;;;;;19.03;12.50;;;;;;;1.77;85.18;99117.28;1696232;82;21116;-54
2021/12/06 11:24:32;;;;;;;23.10;12.43;;;;;;;1.76;85.12;99116.86;1701216;82;20953;-55
2021/12/06 11:27:17;;;;;;;15.63;10.77;;;;;;;1.73;85.13;99108.95;1698308;82;21514;-55
2021/12/06 11:29:58;;;;;;;19.87;12.00;;;;;;;1.72;85.08;99104.11;1696328;82;21013;-55
2021/12/06 11:32:30;;;;;;;14.20;9.33;;;;;;;1.71;85.10;99106.34;1696883;82;22126;-54
2021/12/06 11:35:13;;;;;;;19.17;11.70;;;;;;;1.70;85.18;99111.22;1703312;82;21376;-54
2021/12/06 11:37:43;;;;;;;16.77;10.40;;;;;;;1.72;85.26;99100.58;1697946;82;21068;-55
2021/12/06 11:40:24;;;;;;;15.43;9.17;;;;;;;1.73;85.29;99101.00;1701715;82;21051;-54
2021/12/06 11:43:10;;;;;;;20.40;12.40;;;;;;;1.74;85.34;99101.42;1710052;81;21064;-55
2021/12/06 11:45:55;;;;;;;15.43;10.20;;;;;;;1.75;85.39;99099.19;1720190;81;20911;-55
2021/12/06 11:48:26;;;;;;;24.97;11.57;;;;;;;1.77;85.43;99108.00;1717832;81;21515;-55
2021/12/06 11:51:05;;;;;;;29.73;12.23;;;;;;;1.79;85.57;99109.69;1715587;81;21308;-54